Time;durP1;ratioP1;P1;durP2;ratioP2;P2;SDS_P1;SDS_P2;PMS_P1;PMS_P2;Temp;Humidity;BMP_temperature;BMP_pressure;BME280_temperature;BME280_humidity;BME280_pressure;Samples;Min_cycle;Max_cycle;Signal;HPM_P1;HPM_P2
2022/01/01 00:01:49;;;;;;;13.83;10.30;;;;;;;;;;5067344;28;20771;-84
2022/01/01 00:04:16;;;;;;;15.57;10.10;;;;;;;;;;5065787;28;20454;-83
2022/01/01 00:06:43;;;;;;;11.60;9.10;;;;;;;;;;5067324;28;20448;-82
2022/01/01 00:09:11;;;;;;;13.73;9.97;;;;;;;;;;5067148;28;20476;-85
2022/01/01 00:11:39;;;;;;;13.50;9.77;;;;;;;;;;5066039;28;20550;-85
2022/01/01 00:14:06;;;;;;;19.37;9.60;;;;;;;;;;5070300;28;20462;-84
2022/01/01 00:16:33;;;;;;;13.53;9.27;;;;;;;;;;5071335;28;20472;-81
2022/01/01 00:19:00;;;;;;;13.97;9.80;;;;;;;;;;5070258;28;20487;-85
2022/01/01 00:21:28;;;;;;;11.43;8.30;;;;;;;;;;5058806;28;20468;-83
2022/01/01 00:23:55;;;;;;;12.50;8.77;;;;;;;;;;5066535;28;20442;-85
2022/01/01 00:26:23;;;;;;;11.77;9.17;;;;;;;;;;5064520;28;20464;-81
2022/01/01 00:28:51;;;;;;;11.50;7.63;;;;;;;;;;5060590;28;20481;-82
2022/01/01 00:31:18;;;;;;;14.50;7.70;;;;;;;;;;5070028;28;20536;-80
2022/01/01 00:33:45;;;;;;;9.80;7.60;;;;;;;;;;5069710;28;20457;-81
2022/01/01 00:36:12;;;;;;;11.87;7.60;;;;;;;;;;5066861;28;20488;-81
2022/01/01 00:38:39;;;;;;;11.97;6.47;;;;;;;;;;5068493;28;20491;-84
2022/01/01 00:41:06;;;;;;;7.53;6.27;;;;;;;;;;5067958;28;20934;-85
2022/01/01 00:43:35;;;;;;;10.90;7.23;;;;;;;;;;5067940;28;20461;-85
2022/01/01 00:46:02;;;;;;;12.83;8.03;;;;;;;;;;5063738;28;20454;-81
2022/01/01 00:48:30;;;;;;;11.10;7.90;;;;;;;;;;5066291;28;20477;-85
2022/01/01 00:50:57;;;;;;;10.50;7.80;;;;;;;;;;5067586;28;20938;-85
2022/01/01 00:53:24;;;;;;;12.33;8.90;;;;;;;;;;5067074;28;21260;-84
2022/01/01 00:55:52;;;;;;;14.27;8.57;;;;;;;;;;5068467;28;20450;-85
2022/01/01 00:58:19;;;;;;;12.90;8.83;;;;;;;;;;5066804;28;20494;-82
2022/01/01 01:00:47;;;;;;;15.13;8.60;;;;;;;;;;5065216;28;20957;-85
2022/01/01 01:03:15;;;;;;;16.23;10.23;;;;;;;;;;5061093;28;21459;-81
2022/01/01 01:05:43;;;;;;;15.07;9.13;;;;;;;;;;5067265;28;20298;-81
2022/01/01 01:08:11;;;;;;;12.00;9.00;;;;;;;;;;5073154;28;20470;-81
2022/01/01 01:10:39;;;;;;;13.53;9.30;;;;;;;;;;5070800;28;20442;-85
2022/01/01 01:13:07;;;;;;;13.40;9.27;;;;;;;;;;5071918;28;20462;-85
2022/01/01 01:15:35;;;;;;;14.53;9.53;;;;;;;;;;5071265;28;20463;-84
2022/01/01 01:18:05;;;;;;;14.93;9.40;;;;;;;;;;5053270;28;20570;-86
2022/01/01 01:20:33;;;;;;;18.47;9.70;;;;;;;;;;5069967;28;20444;-85
2022/01/01 01:23:00;;;;;;;13.27;9.60;;;;;;;;;;5052975;28;20472;-81
2022/01/01 01:25:29;;;;;;;13.87;9.50;;;;;;;;;;5065345;28;20462;-82
2022/01/01 01:28:05;;;;;;;15.37;9.50;;;;;;;;;;5063283;28;20477;-86
2022/01/01 01:30:33;;;;;;;15.67;10.90;;;;;;;;;;5073410;28;20450;-83
2022/01/01 01:33:00;;;;;;;15.80;10.63;;;;;;;;;;5070506;28;20961;-83
2022/01/01 01:35:29;;;;;;;14.57;10.13;;;;;;;;;;5068095;28;20463;-80
2022/01/01 01:37:56;;;;;;;16.93;11.90;;;;;;;;;;5070897;28;20482;-86
2022/01/01 01:40:23;;;;;;;17.70;11.20;;;;;;;;;;5072038;28;20450;-82
2022/01/01 01:42:50;;;;;;;22.33;11.60;;;;;;;;;;5071641;28;20456;-82
2022/01/01 01:45:21;;;;;;;14.17;9.70;;;;;;;;;;5074100;28;20805;-83
2022/01/01 01:47:48;;;;;;;16.60;10.90;;;;;;;;;;5077567;28;20490;-83
2022/01/01 01:50:17;;;;;;;18.47;9.10;;;;;;;;;;5071178;28;20452;-84
2022/01/01 01:52:46;;;;;;;16.13;10.00;;;;;;;;;;5067387;28;20466;-86
2022/01/01 01:55:14;;;;;;;19.03;10.67;;;;;;;;;;5071405;28;20442;-85
2022/01/01 01:57:42;;;;;;;16.93;10.57;;;;;;;;;;5069563;28;20488;-88
2022/01/01 02:00:19;;;;;;;17.33;9.93;;;;;;;;;;5071222;28;20450;-86
2022/01/01 02:02:47;;;;;;;15.87;9.40;;;;;;;;;;5053218;28;20483;-85
2022/01/01 02:05:14;;;;;;;16.80;9.90;;;;;;;;;;5069151;28;20466;-82
2022/01/01 02:07:41;;;;;;;15.20;9.10;;;;;;;;;;5069786;28;20454;-85
2022/01/01 02:10:10;;;;;;;17.20;10.43;;;;;;;;;;5068994;28;20455;-81
2022/01/01 02:12:39;;;;;;;20.10;10.90;;;;;;;;;;5070785;28;20504;-83
2022/01/01 02:15:13;;;;;;;25.00;10.97;;;;;;;;;;5070098;28;20462;-82
2022/01/01 02:17:40;;;;;;;16.37;10.13;;;;;;;;;;5055389;28;20480;-86
2022/01/01 02:20:12;;;;;;;18.07;10.33;;;;;;;;;;5072555;28;20449;-87
2022/01/01 02:22:45;;;;;;;24.90;11.10;;;;;;;;;;5071072;28;20468;-82
2022/01/01 02:25:13;;;;;;;15.17;9.30;;;;;;;;;;5071200;28;20504;-85
2022/01/01 02:27:40;;;;;;;18.50;10.57;;;;;;;;;;5075261;28;20831;-78
2022/01/01 02:30:09;;;;;;;13.33;9.60;;;;;;;;;;5049285;28;20458;-82
2022/01/01 02:32:36;;;;;;;16.00;9.13;;;;;;;;;;5050631;28;20869;-84
2022/01/01 02:35:03;;;;;;;15.57;9.17;;;;;;;;;;5068599;28;20465;-85
2022/01/01 02:37:32;;;;;;;13.03;7.53;;;;;;;;;;5067890;28;20482;-83
2022/01/01 02:39:59;;;;;;;14.10;8.00;;;;;;;;;;5066787;28;20460;-82
2022/01/01 02:42:26;;;;;;;11.03;7.53;;;;;;;;;;5073007;28;20442;-82
2022/01/01 02:44:54;;;;;;;9.77;6.90;;;;;;;;;;5071984;28;20466;-84
2022/01/01 02:47:21;;;;;;;12.37;6.90;;;;;;;;;;5071860;28;20797;-86
2022/01/01 02:49:49;;;;;;;14.60;8.40;;;;;;;;;;5070284;28;21024;-85
2022/01/01 02:52:16;;;;;;;15.17;8.73;;;;;;;;;;5070496;28;20436;-86
2022/01/01 02:54:44;;;;;;;14.23;7.40;;;;;;;;;;5065812;28;20982;-81
2022/01/01 02:57:11;;;;;;;13.23;8.77;;;;;;;;;;5069720;28;20468;-84
2022/01/01 02:59:39;;;;;;;14.07;8.17;;;;;;;;;;5068541;28;20468;-82
2022/01/01 03:02:06;;;;;;;16.40;8.90;;;;;;;;;;5073866;28;20457;-81
2022/01/01 03:04:33;;;;;;;12.83;7.73;;;;;;;;;;5069510;28;20533;-84
2022/01/01 03:07:00;;;;;;;14.80;8.27;;;;;;;;;;5070750;28;20477;-82
2022/01/01 03:09:34;;;;;;;12.27;6.70;;;;;;;;;;5067556;28;20487;-81
2022/01/01 03:12:03;;;;;;;13.50;8.03;;;;;;;;;;5068164;28;20446;-85
2022/01/01 03:14:30;;;;;;;14.50;7.93;;;;;;;;;;5066460;28;20465;-84
2022/01/01 03:16:57;;;;;;;9.80;6.70;;;;;;;;;;5068747;28;21001;-83
2022/01/01 03:19:24;;;;;;;10.40;6.60;;;;;;;;;;5069608;28;20705;-83
2022/01/01 03:21:51;;;;;;;13.83;6.30;;;;;;;;;;5069639;28;20444;-83
2022/01/01 03:24:19;;;;;;;10.00;6.50;;;;;;;;;;5069237;28;20462;-81
2022/01/01 03:26:46;;;;;;;7.77;6.37;;;;;;;;;;5068883;28;20445;-85
2022/01/01 03:29:15;;;;;;;8.27;5.67;;;;;;;;;;5066564;28;20463;-81
2022/01/01 03:31:42;;;;;;;7.23;4.90;;;;;;;;;;5068318;28;20484;-83
2022/01/01 03:34:09;;;;;;;8.27;6.00;;;;;;;;;;5069055;28;20445;-83
2022/01/01 03:36:37;;;;;;;9.50;5.23;;;;;;;;;;5059261;28;20462;-84
2022/01/01 03:39:04;;;;;;;5.63;4.50;;;;;;;;;;5059346;28;20476;-81
2022/01/01 03:41:31;;;;;;;9.63;4.90;;;;;;;;;;5047872;28;20467;-81
2022/01/01 03:43:59;;;;;;;7.00;4.97;;;;;;;;;;5065333;28;20537;-84
2022/01/01 03:46:27;;;;;;;7.10;5.00;;;;;;;;;;5064916;28;20497;-81
2022/01/01 03:48:54;;;;;;;7.63;5.27;;;;;;;;;;5068103;28;20502;-86
2022/01/01 03:51:21;;;;;;;7.17;4.27;;;;;;;;;;5068968;28;20441;-81
2022/01/01 03:53:49;;;;;;;8.83;5.43;;;;;;;;;;5068168;28;20448;-83
2022/01/01 03:56:16;;;;;;;9.53;4.10;;;;;;;;;;5069066;28;20441;-86
2022/01/01 03:58:43;;;;;;;6.97;4.60;;;;;;;;;;5070414;28;20495;-84
2022/01/01 04:01:10;;;;;;;8.30;4.90;;;;;;;;;;5065923;28;20476;-82
2022/01/01 04:03:39;;;;;;;7.53;4.43;;;;;;;;;;5065070;28;20457;-82
2022/01/01 04:06:06;;;;;;;7.57;4.20;;;;;;;;;;5069292;28;20459;-81
2022/01/01 04:08:33;;;;;;;5.90;4.10;;;;;;;;;;5068009;28;20489;-81
2022/01/01 04:11:01;;;;;;;9.03;4.37;;;;;;;;;;5068567;28;20446;-84
2022/01/01 04:13:28;;;;;;;6.27;3.90;;;;;;;;;;5067869;28;21184;-82
2022/01/01 04:15:55;;;;;;;5.57;4.33;;;;;;;;;;5071188;28;20447;-82
2022/01/01 04:18:29;;;;;;;9.67;4.50;;;;;;;;;;5066616;28;20483;-82
2022/01/01 04:20:57;;;;;;;7.53;4.37;;;;;;;;;;5067038;28;20447;-83
2022/01/01 04:23:24;;;;;;;7.53;3.77;;;;;;;;;;5068629;28;20447;-81
2022/01/01 04:25:52;;;;;;;6.40;3.70;;;;;;;;;;5068350;28;20518;-82
2022/01/01 04:28:19;;;;;;;6.30;3.97;;;;;;;;;;5068189;28;20480;-84
2022/01/01 04:30:47;;;;;;;6.83;3.67;;;;;;;;;;5070721;28;20460;-81
2022/01/01 04:33:14;;;;;;;6.90;3.67;;;;;;;;;;5060390;28;20473;-85
2022/01/01 04:35:41;;;;;;;11.30;4.37;;;;;;;;;;5071936;28;20444;-82
2022/01/01 04:40:35;;;;;;;9.80;4.17;;;;;;;;;;5065455;28;20541;-85
2022/01/01 04:43:02;;;;;;;7.93;3.93;;;;;;;;;;5064290;28;20218;-85
2022/01/01 04:45:29;;;;;;;6.00;3.60;;;;;;;;;;5069206;28;20445;-85
2022/01/01 04:47:57;;;;;;;10.37;4.27;;;;;;;;;;5070702;28;21011;-85
2022/01/01 04:50:24;;;;;;;7.10;3.90;;;;;;;;;;5066419;28;20532;-83
2022/01/01 04:52:53;;;;;;;7.57;3.70;;;;;;;;;;5071962;28;20529;-83
2022/01/01 04:55:21;;;;;;;6.40;3.83;;;;;;;;;;5073018;28;20468;-83
2022/01/01 04:57:49;;;;;;;4.53;3.03;;;;;;;;;;5074224;28;20999;-82
2022/01/01 05:00:17;;;;;;;5.60;3.50;;;;;;;;;;5074163;28;20453;-82
2022/01/01 05:02:44;;;;;;;7.37;3.60;;;;;;;;;;5070987;28;20463;-86
2022/01/01 05:05:11;;;;;;;6.07;3.50;;;;;;;;;;5070082;28;20449;-85
2022/01/01 05:07:38;;;;;;;7.47;3.30;;;;;;;;;;5071897;28;20445;-83
2022/01/01 05:10:06;;;;;;;11.93;3.43;;;;;;;;;;5072334;28;20461;-84
2022/01/01 05:12:34;;;;;;;8.30;3.47;;;;;;;;;;5072070;28;20538;-84
2022/01/01 05:15:02;;;;;;;8.67;3.70;;;;;;;;;;5073529;28;20962;-85
2022/01/01 05:17:29;;;;;;;4.57;2.93;;;;;;;;;;5073119;28;20461;-84
2022/01/01 05:19:56;;;;;;;5.97;3.40;;;;;;;;;;5069125;28;20813;-83
2022/01/01 05:22:24;;;;;;;4.57;3.47;;;;;;;;;;5077139;28;20462;-83
2022/01/01 05:24:51;;;;;;;4.27;3.17;;;;;;;;;;5074983;28;20445;-81
2022/01/01 05:27:18;;;;;;;7.00;3.37;;;;;;;;;;5070712;28;20794;-80
2022/01/01 05:29:45;;;;;;;6.77;2.90;;;;;;;;;;5076080;28;20481;-83
2022/01/01 05:32:13;;;;;;;7.27;3.50;;;;;;;;;;5079120;28;20472;-85
2022/01/01 05:34:41;;;;;;;9.23;3.53;;;;;;;;;;5073111;28;20938;-84
2022/01/01 05:37:08;;;;;;;6.57;3.47;;;;;;;;;;5071514;28;20445;-81
2022/01/01 05:39:35;;;;;;;5.33;2.80;;;;;;;;;;5078303;28;20498;-82
2022/01/01 05:42:02;;;;;;;3.87;2.90;;;;;;;;;;5075884;28;20934;-81
2022/01/01 05:44:29;;;;;;;5.77;2.83;;;;;;;;;;5067504;28;20448;-84
2022/01/01 05:46:56;;;;;;;4.10;2.90;;;;;;;;;;5069354;28;20814;-83
2022/01/01 05:49:25;;;;;;;7.40;3.50;;;;;;;;;;5066000;28;20487;-82
2022/01/01 05:51:52;;;;;;;7.33;3.17;;;;;;;;;;5071681;28;20429;-85
2022/01/01 05:54:19;;;;;;;3.80;2.70;;;;;;;;;;5069392;28;20452;-82
2022/01/01 05:56:46;;;;;;;6.17;3.13;;;;;;;;;;5071696;28;20445;-86
2022/01/01 05:59:14;;;;;;;10.00;3.10;;;;;;;;;;5071208;28;20853;-83
2022/01/01 06:01:41;;;;;;;8.90;3.27;;;;;;;;;;5068837;28;20442;-87
2022/01/01 06:04:08;;;;;;;3.60;2.50;;;;;;;;;;5052218;28;20448;-82
2022/01/01 06:06:36;;;;;;;7.83;2.60;;;;;;;;;;5070963;28;20450;-84
2022/01/01 06:09:04;;;;;;;9.77;3.40;;;;;;;;;;5071351;28;20818;-80
2022/01/01 06:11:31;;;;;;;7.97;2.80;;;;;;;;;;5071096;28;20810;-85
2022/01/01 06:13:58;;;;;;;4.77;2.80;;;;;;;;;;5071736;28;20770;-83
2022/01/01 06:16:25;;;;;;;3.60;2.27;;;;;;;;;;5069329;28;20564;-82
2022/01/01 06:18:52;;;;;;;4.17;2.60;;;;;;;;;;5064446;28;20946;-84
2022/01/01 06:21:19;;;;;;;5.43;2.80;;;;;;;;;;5069880;28;20442;-83
2022/01/01 06:23:48;;;;;;;9.53;3.57;;;;;;;;;;5071051;28;20437;-85
2022/01/01 06:26:16;;;;;;;4.50;2.77;;;;;;;;;;5070626;28;20447;-81
2022/01/01 06:28:43;;;;;;;5.73;2.80;;;;;;;;;;5068392;28;21036;-84
2022/01/01 06:31:10;;;;;;;5.63;2.80;;;;;;;;;;5081460;28;22368;-85
2022/01/01 06:33:37;;;;;;;7.93;2.80;;;;;;;;;;5072171;28;20437;-80
2022/01/01 06:36:05;;;;;;;3.97;2.43;;;;;;;;;;5068708;28;20441;-83
2022/01/01 06:38:32;;;;;;;5.10;2.93;;;;;;;;;;5067812;28;20481;-86
2022/01/01 06:41:00;;;;;;;3.87;2.53;;;;;;;;;;5069091;28;20452;-82
2022/01/01 06:43:28;;;;;;;9.17;2.50;;;;;;;;;;5068385;28;20896;-82
2022/01/01 06:45:55;;;;;;;6.20;2.40;;;;;;;;;;5071360;28;20452;-84
2022/01/01 06:48:22;;;;;;;6.17;2.97;;;;;;;;;;5068754;28;20504;-79
2022/01/01 06:50:50;;;;;;;4.20;2.07;;;;;;;;;;5070367;28;20813;-79
2022/01/01 06:53:17;;;;;;;8.37;2.53;;;;;;;;;;5067114;28;20448;-83
2022/01/01 06:55:45;;;;;;;9.80;2.63;;;;;;;;;;5067319;28;20455;-86
2022/01/01 06:58:13;;;;;;;6.60;2.60;;;;;;;;;;5069788;28;20471;-83
2022/01/01 07:00:40;;;;;;;4.60;2.60;;;;;;;;;;5070110;28;20505;-85
2022/01/01 07:03:08;;;;;;;3.47;2.23;;;;;;;;;;5070489;28;20501;-83
2022/01/01 07:05:35;;;;;;;3.23;2.20;;;;;;;;;;5071451;28;20440;-82
2022/01/01 07:08:02;;;;;;;5.10;2.53;;;;;;;;;;5072162;28;20480;-82
2022/01/01 07:10:30;;;;;;;5.37;2.50;;;;;;;;;;5072767;28;20949;-83
2022/01/01 07:12:57;;;;;;;5.00;2.13;;;;;;;;;;5069483;28;20458;-81
2022/01/01 07:15:25;;;;;;;4.13;2.70;;;;;;;;;;5069597;28;20799;-83
2022/01/01 07:17:52;;;;;;;5.63;2.60;;;;;;;;;;5067823;28;20465;-82
2022/01/01 07:20:20;;;;;;;3.60;2.50;;;;;;;;;;5068782;28;20491;-83
2022/01/01 07:22:47;;;;;;;4.50;2.33;;;;;;;;;;5067938;28;20790;-84
2022/01/01 07:25:15;;;;;;;3.40;2.00;;;;;;;;;;5051626;28;20467;-82
2022/01/01 07:27:42;;;;;;;4.13;2.20;;;;;;;;;;5060622;28;20481;-82
2022/01/01 07:30:10;;;;;;;8.70;2.83;;;;;;;;;;5052993;28;20832;-80
2022/01/01 07:32:41;;;;;;;3.00;1.93;;;;;;;;;;5071652;28;20443;-82
2022/01/01 07:35:08;;;;;;;7.10;2.60;;;;;;;;;;5052362;28;20448;-84
2022/01/01 07:37:35;;;;;;;5.67;2.33;;;;;;;;;;5052388;28;20439;-83
2022/01/01 07:40:03;;;;;;;4.23;2.40;;;;;;;;;;5065901;28;20484;-80
2022/01/01 07:42:30;;;;;;;4.60;2.30;;;;;;;;;;5061449;28;20467;-82
2022/01/01 07:44:59;;;;;;;4.57;2.57;;;;;;;;;;5069867;28;20807;-81
2022/01/01 07:47:26;;;;;;;2.93;1.93;;;;;;;;;;5069638;28;20447;-81
2022/01/01 07:49:55;;;;;;;3.20;2.23;;;;;;;;;;5068967;28;20472;-82
2022/01/01 07:52:22;;;;;;;6.17;2.60;;;;;;;;;;5064601;28;20550;-82
2022/01/01 07:54:49;;;;;;;5.60;2.33;;;;;;;;;;5068731;28;20533;-82
2022/01/01 07:57:16;;;;;;;4.97;2.70;;;;;;;;;;5067464;28;20434;-82
2022/01/01 07:59:43;;;;;;;3.97;2.27;;;;;;;;;;5068905;28;20474;-80
2022/01/01 08:02:10;;;;;;;3.87;2.30;;;;;;;;;;5066670;28;20445;-80
2022/01/01 08:04:38;;;;;;;4.37;2.33;;;;;;;;;;5069721;28;20442;-82
2022/01/01 08:07:06;;;;;;;6.50;2.47;;;;;;;;;;5067973;28;20461;-82
2022/01/01 08:09:33;;;;;;;7.20;3.40;;;;;;;;;;5070036;28;20487;-79
2022/01/01 08:12:01;;;;;;;4.07;2.80;;;;;;;;;;5065182;28;20476;-81
2022/01/01 08:14:28;;;;;;;6.20;2.90;;;;;;;;;;5067464;28;20432;-81
2022/01/01 08:16:57;;;;;;;11.07;2.63;;;;;;;;;;5068748;28;20508;-83
2022/01/01 08:19:26;;;;;;;4.70;2.13;;;;;;;;;;5069786;28;20483;-80
2022/01/01 08:21:54;;;;;;;3.50;2.20;;;;;;;;;;5054006;28;20467;-83
2022/01/01 08:24:22;;;;;;;6.43;2.77;;;;;;;;;;5056314;28;20439;-82
2022/01/01 08:26:49;;;;;;;10.03;2.73;;;;;;;;;;5072154;28;20458;-81
2022/01/01 08:29:17;;;;;;;4.80;3.10;;;;;;;;;;5067464;28;20478;-86
2022/01/01 08:31:44;;;;;;;4.03;2.47;;;;;;;;;;5068739;28;20469;-80
2022/01/01 08:34:11;;;;;;;5.40;2.67;;;;;;;;;;5072914;28;20460;-82
2022/01/01 08:36:38;;;;;;;4.60;2.73;;;;;;;;;;5072588;28;20439;-82
2022/01/01 08:39:08;;;;;;;6.80;2.87;;;;;;;;;;5072490;28;20485;-83
2022/01/01 08:41:37;;;;;;;6.70;2.60;;;;;;;;;;5070691;28;20967;-81
2022/01/01 08:44:04;;;;;;;5.10;2.70;;;;;;;;;;5068287;28;20459;-83
2022/01/01 08:46:31;;;;;;;4.37;2.60;;;;;;;;;;5069171;28;20442;-78
2022/01/01 08:49:00;;;;;;;4.10;2.27;;;;;;;;;;5051787;28;20499;-79
2022/01/01 08:51:28;;;;;;;6.97;2.90;;;;;;;;;;5069711;28;20936;-78
2022/01/01 08:53:57;;;;;;;4.70;2.70;;;;;;;;;;5070671;28;20613;-77
2022/01/01 08:56:24;;;;;;;5.50;2.70;;;;;;;;;;5071446;28;20509;-80
2022/01/01 08:58:52;;;;;;;6.03;2.90;;;;;;;;;;5070310;28;20482;-83
2022/01/01 09:01:20;;;;;;;3.37;2.33;;;;;;;;;;5067689;28;20466;-80
2022/01/01 09:03:47;;;;;;;3.90;2.67;;;;;;;;;;5070549;28;20573;-78
2022/01/01 09:06:14;;;;;;;5.90;2.67;;;;;;;;;;5072452;28;20534;-79
2022/01/01 09:08:42;;;;;;;6.10;2.63;;;;;;;;;;5054733;28;20494;-76
2022/01/01 09:11:10;;;;;;;4.87;2.90;;;;;;;;;;5053707;28;20516;-76
2022/01/01 09:13:41;;;;;;;4.43;2.53;;;;;;;;;;5055513;28;20544;-78
2022/01/01 09:16:10;;;;;;;6.27;2.83;;;;;;;;;;5072524;28;20450;-79
2022/01/01 09:18:38;;;;;;;4.77;2.70;;;;;;;;;;5055858;28;20990;-77
2022/01/01 09:21:05;;;;;;;4.33;2.93;;;;;;;;;;5072965;28;20462;-77
2022/01/01 09:23:33;;;;;;;2.90;2.20;;;;;;;;;;5069900;28;20465;-78
2022/01/01 09:26:01;;;;;;;5.47;2.40;;;;;;;;;;5068636;28;20487;-76
2022/01/01 09:28:28;;;;;;;6.73;2.70;;;;;;;;;;5071501;28;20856;-80
2022/01/01 09:30:55;;;;;;;4.60;2.80;;;;;;;;;;5070670;28;20447;-78
2022/01/01 09:33:27;;;;;;;4.93;2.63;;;;;;;;;;5072886;28;20458;-84
2022/01/01 09:35:54;;;;;;;5.10;2.83;;;;;;;;;;5050337;28;21069;-82
2022/01/01 09:38:21;;;;;;;3.00;2.67;;;;;;;;;;5056837;28;20474;-79
2022/01/01 09:40:49;;;;;;;2.60;2.33;;;;;;;;;;5069516;28;20488;-76
2022/01/01 09:43:16;;;;;;;4.50;2.40;;;;;;;;;;5071274;28;20578;-81
2022/01/01 09:45:44;;;;;;;5.67;2.23;;;;;;;;;;5052314;28;20464;-78
2022/01/01 09:48:11;;;;;;;5.83;2.57;;;;;;;;;;5067092;28;20479;-78
2022/01/01 09:50:41;;;;;;;3.10;2.80;;;;;;;;;;5068930;28;20563;-79
2022/01/01 09:53:09;;;;;;;3.43;2.20;;;;;;;;;;5070443;28;20819;-78
2022/01/01 09:55:36;;;;;;;3.90;2.43;;;;;;;;;;5071946;28;20450;-79
2022/01/01 09:58:03;;;;;;;4.90;2.63;;;;;;;;;;5071547;28;20467;-78
2022/01/01 10:00:30;;;;;;;3.97;2.60;;;;;;;;;;5056407;28;20485;-81
2022/01/01 10:02:57;;;;;;;4.20;2.60;;;;;;;;;;5064799;28;20448;-80
2022/01/01 10:05:25;;;;;;;7.30;3.30;;;;;;;;;;5069537;28;20454;-78
2022/01/01 10:07:53;;;;;;;3.90;2.50;;;;;;;;;;5069004;28;20480;-83
2022/01/01 10:10:22;;;;;;;5.47;2.90;;;;;;;;;;5070549;28;20770;-81
2022/01/01 10:12:50;;;;;;;5.07;2.33;;;;;;;;;;5071899;28;20850;-82
2022/01/01 10:15:17;;;;;;;6.17;2.90;;;;;;;;;;5046462;28;20446;-79
2022/01/01 10:17:45;;;;;;;2.93;2.20;;;;;;;;;;5067626;28;21055;-78
2022/01/01 10:20:12;;;;;;;6.60;3.33;;;;;;;;;;5070933;28;21011;-81
2022/01/01 10:22:40;;;;;;;5.43;3.03;;;;;;;;;;5067350;28;20933;-81
2022/01/01 10:27:53;;;;;;;4.50;2.97;;;;;;;;;;5067648;28;20461;-84
2022/01/01 10:30:22;;;;;;;3.80;3.00;;;;;;;;;;5049151;28;20461;-81
2022/01/01 10:33:04;;;;;;;3.27;2.80;;;;;;;;;;5053335;28;20443;-82
2022/01/01 10:35:35;;;;;;;3.60;2.70;;;;;;;;;;5055301;28;20943;-79
2022/01/01 10:38:04;;;;;;;9.07;2.73;;;;;;;;;;5053713;28;20477;-81
2022/01/01 10:40:33;;;;;;;5.20;3.20;;;;;;;;;;5051242;28;21065;-80
2022/01/01 10:43:00;;;;;;;6.73;2.80;;;;;;;;;;5067545;28;20473;-80
2022/01/01 10:45:36;;;;;;;3.90;2.30;;;;;;;;;;5068831;28;20447;-80
2022/01/01 10:48:14;;;;;;;5.27;2.90;;;;;;;;;;5067919;28;20491;-81
2022/01/01 10:50:42;;;;;;;4.70;2.20;;;;;;;;;;5052368;28;21009;-80
2022/01/01 10:53:11;;;;;;;3.03;2.30;;;;;;;;;;5046309;28;20460;-81
2022/01/01 10:55:43;;;;;;;4.93;2.80;;;;;;;;;;5069240;28;20452;-79
2022/01/01 10:58:10;;;;;;;3.33;2.53;;;;;;;;;;5048839;28;20496;-84
2022/01/01 11:00:41;;;;;;;6.57;2.90;;;;;;;;;;5062275;28;20474;-84
2022/01/01 11:03:09;;;;;;;4.53;2.50;;;;;;;;;;5040048;28;20467;-82
2022/01/01 11:05:37;;;;;;;4.90;2.93;;;;;;;;;;5059247;28;20806;-83
2022/01/01 11:08:06;;;;;;;9.53;3.50;;;;;;;;;;5049973;28;20948;-82
2022/01/01 11:10:33;;;;;;;12.50;6.47;;;;;;;;;;5068891;28;20450;-81
2022/01/01 11:13:03;;;;;;;6.63;4.50;;;;;;;;;;5068913;28;20885;-84
2022/01/01 11:15:30;;;;;;;3.90;2.80;;;;;;;;;;5067690;28;20539;-83
2022/01/01 11:17:58;;;;;;;4.60;3.27;;;;;;;;;;5063687;28;20483;-85
2022/01/01 11:20:26;;;;;;;8.30;3.30;;;;;;;;;;5041346;28;21021;-82
2022/01/01 11:22:53;;;;;;;7.80;3.63;;;;;;;;;;5063101;28;20900;-85
2022/01/01 11:25:21;;;;;;;5.60;2.57;;;;;;;;;;5071419;28;20441;-82
2022/01/01 11:27:48;;;;;;;5.27;2.50;;;;;;;;;;5069957;28;20468;-78
2022/01/01 11:30:19;;;;;;;5.60;3.33;;;;;;;;;;5064996;28;20928;-85
2022/01/01 11:32:50;;;;;;;4.93;2.80;;;;;;;;;;5068731;28;20455;-84
2022/01/01 11:35:19;;;;;;;2.80;2.27;;;;;;;;;;5069962;28;20456;-80
2022/01/01 11:37:48;;;;;;;4.07;2.73;;;;;;;;;;5068444;28;20463;-86
2022/01/01 11:40:17;;;;;;;5.17;2.80;;;;;;;;;;5051366;28;20468;-80
2022/01/01 11:42:46;;;;;;;3.27;2.30;;;;;;;;;;5046383;28;20460;-80
2022/01/01 11:45:14;;;;;;;3.93;2.70;;;;;;;;;;5065164;28;20455;-83
2022/01/01 11:47:43;;;;;;;4.33;2.43;;;;;;;;;;5067650;28;20475;-81
2022/01/01 11:50:10;;;;;;;6.10;3.03;;;;;;;;;;5071731;28;20443;-82
2022/01/01 11:52:39;;;;;;;3.30;2.50;;;;;;;;;;5066006;28;20459;-86
2022/01/01 11:55:10;;;;;;;7.23;2.83;;;;;;;;;;5065037;28;20459;-79
2022/01/01 11:57:38;;;;;;;4.37;2.30;;;;;;;;;;5047542;28;20459;-86
2022/01/01 12:00:13;;;;;;;4.20;2.40;;;;;;;;;;5066053;28;20494;-84
2022/01/01 12:02:44;;;;;;;4.77;2.63;;;;;;;;;;5049108;28;20451;-80
2022/01/01 12:05:14;;;;;;;3.50;2.93;;;;;;;;;;5064095;28;21096;-77
2022/01/01 12:07:56;;;;;;;3.60;2.53;;;;;;;;;;5063288;28;20476;-79
2022/01/01 12:10:25;;;;;;;3.50;2.43;;;;;;;;;;5047994;28;20939;-80
2022/01/01 12:12:53;;;;;;;3.37;2.30;;;;;;;;;;5068405;28;20439;-81
2022/01/01 12:15:22;;;;;;;2.90;2.20;;;;;;;;;;5060637;28;20464;-79
2022/01/01 12:17:53;;;;;;;4.30;2.67;;;;;;;;;;5064335;28;20472;-81
2022/01/01 12:20:22;;;;;;;3.93;2.30;;;;;;;;;;5047056;28;20479;-81
2022/01/01 12:22:50;;;;;;;6.03;2.93;;;;;;;;;;5048518;28;20451;-83
2022/01/01 12:25:18;;;;;;;6.60;2.70;;;;;;;;;;5065060;28;20456;-78
2022/01/01 12:27:47;;;;;;;3.27;2.60;;;;;;;;;;5065792;28;20588;-86
2022/01/01 12:30:15;;;;;;;4.60;2.33;;;;;;;;;;5062638;28;20467;-82
2022/01/01 12:32:44;;;;;;;3.10;2.50;;;;;;;;;;5062267;28;20457;-79
2022/01/01 12:35:17;;;;;;;2.97;2.63;;;;;;;;;;5064960;28;20452;-81
2022/01/01 12:37:45;;;;;;;3.33;2.30;;;;;;;;;;5066659;28;20456;-81
2022/01/01 12:40:13;;;;;;;5.83;2.63;;;;;;;;;;5049069;28;20486;-82
2022/01/01 12:42:46;;;;;;;3.87;2.10;;;;;;;;;;5068513;28;20444;-78
2022/01/01 12:45:16;;;;;;;4.70;2.60;;;;;;;;;;5069569;28;20440;-80
2022/01/01 12:47:43;;;;;;;3.40;2.93;;;;;;;;;;5066262;28;21075;-80
2022/01/01 12:50:10;;;;;;;2.77;2.37;;;;;;;;;;5065295;28;20472;-79
2022/01/01 12:52:38;;;;;;;4.40;2.53;;;;;;;;;;5047640;28;20817;-82
2022/01/01 12:55:07;;;;;;;3.67;2.90;;;;;;;;;;5065913;28;20976;-82
2022/01/01 12:57:34;;;;;;;4.03;2.80;;;;;;;;;;5068288;28;20859;-83
2022/01/01 13:00:16;;;;;;;3.50;2.30;;;;;;;;;;5067282;28;20461;-84
2022/01/01 13:02:43;;;;;;;4.13;3.10;;;;;;;;;;5054257;28;20440;-85
2022/01/01 13:05:11;;;;;;;3.37;2.53;;;;;;;;;;5068822;28;20436;-82
2022/01/01 13:07:41;;;;;;;3.53;2.57;;;;;;;;;;5071955;28;20571;-83
2022/01/01 13:10:12;;;;;;;6.47;2.80;;;;;;;;;;5073818;28;20438;-81
2022/01/01 13:12:40;;;;;;;5.43;2.63;;;;;;;;;;5074422;28;20923;-83
2022/01/01 13:15:07;;;;;;;4.17;2.77;;;;;;;;;;5068984;28;20463;-84
2022/01/01 13:17:34;;;;;;;3.13;2.37;;;;;;;;;;5070889;28;20444;-81
2022/01/01 13:20:03;;;;;;;5.80;2.80;;;;;;;;;;5071209;28;20527;-81
2022/01/01 13:22:31;;;;;;;3.67;2.33;;;;;;;;;;5072896;28;20436;-82
2022/01/01 13:24:59;;;;;;;3.90;2.70;;;;;;;;;;5054495;28;20448;-81
2022/01/01 13:27:29;;;;;;;4.43;2.37;;;;;;;;;;5072014;28;20470;-81
2022/01/01 13:29:56;;;;;;;3.07;2.33;;;;;;;;;;5065462;28;20460;-83
2022/01/01 13:32:23;;;;;;;4.37;2.70;;;;;;;;;;5074776;28;20548;-80
2022/01/01 13:34:52;;;;;;;3.20;2.37;;;;;;;;;;5074422;28;20440;-80
2022/01/01 13:37:24;;;;;;;3.67;2.93;;;;;;;;;;5067242;28;20463;-79
2022/01/01 13:39:54;;;;;;;2.70;2.50;;;;;;;;;;5068725;28;20452;-82
2022/01/01 13:42:21;;;;;;;2.80;2.37;;;;;;;;;;5071812;28;20440;-83
2022/01/01 13:44:50;;;;;;;2.80;2.50;;;;;;;;;;5069598;28;20925;-82
2022/01/01 13:47:21;;;;;;;3.17;2.40;;;;;;;;;;5070421;28;20518;-84
2022/01/01 13:49:50;;;;;;;3.20;2.60;;;;;;;;;;5071950;28;20571;-84
2022/01/01 13:52:18;;;;;;;4.73;3.17;;;;;;;;;;5054631;28;20472;-83
2022/01/01 13:54:45;;;;;;;3.37;2.53;;;;;;;;;;5052169;28;20444;-82
2022/01/01 13:57:12;;;;;;;3.13;2.50;;;;;;;;;;5069663;28;20653;-81
2022/01/01 13:59:40;;;;;;;3.60;2.60;;;;;;;;;;5068088;28;20922;-83
2022/01/01 14:02:11;;;;;;;3.17;2.77;;;;;;;;;;5072029;28;20472;-86
2022/01/01 14:04:39;;;;;;;3.13;2.40;;;;;;;;;;5054145;28;20542;-84
2022/01/01 14:07:08;;;;;;;2.50;2.30;;;;;;;;;;5071913;28;20448;-86
2022/01/01 14:09:35;;;;;;;3.20;2.70;;;;;;;;;;5072477;28;20517;-84
2022/01/01 14:12:03;;;;;;;4.60;2.70;;;;;;;;;;5070299;28;20442;-83
2022/01/01 14:14:31;;;;;;;4.80;2.53;;;;;;;;;;5068771;28;20456;-86
2022/01/01 14:16:58;;;;;;;3.70;2.80;;;;;;;;;;5073181;28;20466;-86
2022/01/01 14:19:27;;;;;;;3.10;2.50;;;;;;;;;;5080278;28;20448;-82
2022/01/01 14:21:55;;;;;;;2.60;2.40;;;;;;;;;;5081435;28;20480;-80
2022/01/01 14:24:22;;;;;;;2.60;2.40;;;;;;;;;;5073172;28;20466;-85
2022/01/01 14:26:51;;;;;;;3.27;2.63;;;;;;;;;;5068360;28;20467;-81
2022/01/01 14:29:21;;;;;;;3.53;3.20;;;;;;;;;;5050450;28;20466;-82
2022/01/01 14:31:49;;;;;;;4.13;2.50;;;;;;;;;;5067048;28;20456;-83
2022/01/01 14:34:17;;;;;;;3.30;3.00;;;;;;;;;;5072659;28;20443;-85
2022/01/01 14:36:47;;;;;;;3.80;2.47;;;;;;;;;;5053634;28;20921;-89
2022/01/01 14:39:14;;;;;;;3.33;2.53;;;;;;;;;;5070455;28;20479;-85
2022/01/01 14:41:42;;;;;;;3.40;2.87;;;;;;;;;;5071295;28;20493;-85
2022/01/01 14:44:09;;;;;;;3.67;2.73;;;;;;;;;;5064018;28;20888;-83
2022/01/01 14:46:40;;;;;;;5.00;2.83;;;;;;;;;;5064947;28;20807;-82
2022/01/01 14:49:08;;;;;;;3.43;3.07;;;;;;;;;;5070956;28;20473;-84